createdAt,value
2019-02-19T00:01:16.522Z,64.05
2019-02-19T00:03:48.064Z,51.60
2019-02-19T00:06:18.387Z,52.73
2019-02-19T00:08:48.736Z,52.62
2019-02-19T00:11:19.078Z,55.10
2019-02-19T00:13:49.457Z,59.58
2019-02-19T00:16:19.737Z,56.95
2019-02-19T00:18:50.120Z,70.00
2019-02-19T00:21:20.435Z,69.62
2019-02-19T00:23:50.888Z,58.02
2019-02-19T00:26:21.264Z,54.67
2019-02-19T00:28:52.004Z,47.10
2019-02-19T00:31:22.350Z,44.67
2019-02-19T00:33:54.135Z,55.23
2019-02-19T00:36:24.762Z,40.20
2019-02-19T00:38:55.058Z,58.80
2019-02-19T00:41:25.418Z,48.98
2019-02-19T00:43:55.738Z,51.50
2019-02-19T00:46:26.072Z,51.77
2019-02-19T00:48:56.414Z,64.55
2019-02-19T00:51:26.746Z,54.08
2019-02-19T00:53:57.080Z,60.58
2019-02-19T00:56:27.512Z,98.85
2019-02-19T00:58:57.836Z,63.92
2019-02-19T01:01:28.255Z,58.48
2019-02-19T01:03:58.590Z,64.22
2019-02-19T01:06:29.452Z,49.93
2019-02-19T01:08:59.871Z,59.98
2019-02-19T01:11:30.176Z,54.67
2019-02-19T01:14:00.552Z,58.92
2019-02-19T01:16:30.857Z,58.55
2019-02-19T01:19:01.236Z,62.55
2019-02-19T01:21:31.563Z,59.33
2019-02-19T01:24:01.959Z,58.65
2019-02-19T01:26:33.348Z,54.63
2019-02-19T01:29:03.747Z,60.40
2019-02-19T01:31:34.118Z,58.35
2019-02-19T01:34:04.494Z,65.65
2019-02-19T01:36:35.996Z,58.00
2019-02-19T01:39:06.803Z,72.70
2019-02-19T01:41:37.115Z,72.00
2019-02-19T01:44:07.476Z,56.20
2019-02-19T01:46:37.858Z,63.83
2019-02-19T01:49:08.954Z,57.08
2019-02-19T01:51:39.330Z,54.48
2019-02-19T01:54:09.672Z,62.48
2019-02-19T01:56:40.056Z,56.40
2019-02-19T01:59:10.344Z,68.22
2019-02-19T02:01:40.758Z,60.65
2019-02-19T02:04:11.046Z,53.50
2019-02-19T02:06:41.416Z,58.83
2019-02-19T02:09:11.763Z,45.65
2019-02-19T02:11:42.120Z,52.83
2019-02-19T02:14:12.436Z,57.83
2019-02-19T02:16:42.792Z,57.67
2019-02-19T02:19:13.182Z,63.10
2019-02-19T02:21:43.584Z,66.42
2019-02-19T02:24:14.876Z,62.48
2019-02-19T02:26:46.399Z,63.87
2019-02-19T02:29:16.734Z,65.45
2019-02-19T02:31:47.542Z,59.73
2019-02-19T02:34:17.894Z,62.03
2019-02-19T02:36:49.708Z,82.88
2019-02-19T02:39:20.064Z,86.63
2019-02-19T02:41:50.358Z,64.62
2019-02-19T02:44:20.801Z,56.88
2019-02-19T02:46:51.514Z,54.75
2019-02-19T02:49:21.860Z,51.70
2019-02-19T02:51:52.316Z,71.50
2019-02-19T02:54:22.612Z,84.10
2019-02-19T02:56:52.936Z,53.00
2019-02-19T02:59:23.259Z,63.75
2019-02-19T03:01:53.582Z,60.55
2019-02-19T03:04:23.924Z,63.65
2019-02-19T03:07:06.246Z,82.70
2019-02-19T03:09:36.548Z,61.95
2019-02-19T03:12:06.958Z,81.02
2019-02-19T03:14:37.322Z,49.45
2019-02-19T03:17:07.694Z,60.60
2019-02-19T03:19:38.050Z,66.82
2019-02-19T03:22:08.398Z,64.80
2019-02-19T03:24:38.736Z,65.35
2019-02-19T03:27:09.061Z,61.90
2019-02-19T03:29:39.451Z,64.50
2019-02-19T03:32:10.890Z,82.42
2019-02-19T03:34:41.222Z,60.65
2019-02-19T03:37:12.847Z,68.97
2019-02-19T03:39:43.154Z,66.77
2019-02-19T03:42:13.500Z,66.17
2019-02-19T03:44:43.872Z,59.48
2019-02-19T03:47:14.177Z,55.58
2019-02-19T03:49:44.562Z,65.80
2019-02-19T03:52:15.320Z,70.87
2019-02-19T03:54:46.116Z,56.50
2019-02-19T03:57:16.474Z,61.05
2019-02-19T03:59:46.822Z,58.35
2019-02-19T04:02:17.185Z,61.08
2019-02-19T04:04:47.562Z,64.03
2019-02-19T04:07:17.896Z,70.12
2019-02-19T04:09:48.252Z,64.37
2019-02-19T04:12:18.565Z,55.67
2019-02-19T04:14:49.029Z,76.77
2019-02-19T04:17:19.390Z,60.23
2019-02-19T04:19:49.760Z,88.67
2019-02-19T04:22:20.122Z,63.17
2019-02-19T04:24:50.504Z,79.53
2019-02-19T04:27:20.874Z,69.27
2019-02-19T04:29:51.326Z,62.40
2019-02-19T04:32:21.729Z,63.35
2019-02-19T04:34:52.076Z,60.48
2019-02-19T04:37:23.403Z,55.48
2019-02-19T04:39:54.120Z,81.82
2019-02-19T04:42:24.552Z,68.07
2019-02-19T04:44:55.294Z,51.45
2019-02-19T04:47:25.647Z,53.30
2019-02-19T04:49:56.007Z,70.62
2019-02-19T04:52:26.303Z,69.92
2019-02-19T04:54:57.055Z,93.90
2019-02-19T04:57:27.445Z,61.53
2019-02-19T04:59:57.729Z,61.37
2019-02-19T05:02:28.067Z,52.88
2019-02-19T05:04:58.433Z,57.67
2019-02-19T05:07:30.278Z,69.95
2019-02-19T05:10:00.618Z,75.60
2019-02-19T05:12:30.968Z,91.08
2019-02-19T05:15:02.270Z,76.95
2019-02-19T05:17:33.675Z,62.45
2019-02-19T05:20:04.247Z,64.42
2019-02-19T05:22:34.571Z,86.45
2019-02-19T05:25:05.121Z,64.65
2019-02-19T05:27:35.428Z,60.55
2019-02-19T05:30:06.138Z,73.42
2019-02-19T05:32:36.444Z,92.80
2019-02-19T05:35:07.140Z,64.72
2019-02-19T05:37:37.478Z,69.87
2019-02-19T05:40:07.850Z,51.73
2019-02-19T05:42:38.236Z,74.60
2019-02-19T05:45:08.801Z,57.08
2019-02-19T05:47:39.152Z,74.80
2019-02-19T05:50:09.604Z,56.53
2019-02-19T05:52:40.262Z,74.70
2019-02-19T05:55:10.629Z,56.23
2019-02-19T05:57:40.957Z,63.05
2019-02-19T06:00:11.965Z,67.35
2019-02-19T06:02:42.288Z,61.33
2019-02-19T06:05:12.676Z,68.52
2019-02-19T06:07:43.051Z,72.45
2019-02-19T06:10:13.580Z,51.88
2019-02-19T06:12:43.987Z,52.33
2019-02-19T06:15:14.455Z,63.60
2019-02-19T06:17:44.821Z,56.08
2019-02-19T06:20:15.242Z,63.42
2019-02-19T06:22:45.656Z,79.82
2019-02-19T06:25:15.960Z,53.98
2019-02-19T06:27:46.300Z,52.30
2019-02-19T06:30:16.686Z,57.98
2019-02-19T06:32:47.095Z,57.55
2019-02-19T06:35:17.462Z,48.28
2019-02-19T06:37:48.260Z,51.37
2019-02-19T06:40:29.024Z,58.28
2019-02-19T06:42:59.368Z,50.08
2019-02-19T06:45:29.739Z,50.10
2019-02-19T06:48:00.140Z,49.93
2019-02-19T06:50:30.503Z,45.88
2019-02-19T06:53:00.821Z,63.38
2019-02-19T06:55:31.166Z,44.42
2019-02-19T06:58:01.508Z,41.55
2019-02-19T07:00:31.847Z,60.90
2019-02-19T07:03:21.165Z,58.30
2019-02-19T07:05:51.504Z,43.55
2019-02-19T07:08:21.838Z,67.27
2019-02-19T07:10:52.182Z,51.88
2019-02-19T07:13:22.504Z,52.90
2019-02-19T07:15:52.844Z,46.08
2019-02-19T07:18:24.464Z,48.80
2019-02-19T07:20:54.840Z,44.65
2019-02-19T07:23:25.192Z,46.28
2019-02-19T07:25:55.588Z,49.38
2019-02-19T07:28:25.912Z,51.92
2019-02-19T07:30:56.286Z,51.37
2019-02-19T07:33:26.680Z,45.10
2019-02-19T07:35:57.054Z,48.98
2019-02-19T07:38:29.867Z,44.85
2019-02-19T07:40:59.776Z,49.05
2019-02-19T07:43:30.736Z,44.58
2019-02-19T07:46:01.056Z,50.92
2019-02-19T07:48:31.400Z,39.08
2019-02-19T07:51:01.742Z,57.50
2019-02-19T07:53:32.088Z,39.38
2019-02-19T07:56:02.458Z,42.35
2019-02-19T07:58:32.834Z,39.92
2019-02-19T08:01:04.072Z,46.50
2019-02-19T08:03:34.531Z,38.13
2019-02-19T08:06:04.906Z,71.95
2019-02-19T08:08:35.941Z,56.80
2019-02-19T08:11:07.566Z,41.05
2019-02-19T08:13:37.974Z,39.85
2019-02-19T08:16:08.411Z,42.70
2019-02-19T08:18:39.758Z,35.83
2019-02-19T08:21:10.140Z,33.40
2019-02-19T08:23:40.484Z,41.55
2019-02-19T08:26:10.880Z,40.03
2019-02-19T08:28:41.222Z,43.00
2019-02-19T08:31:11.581Z,37.73
2019-02-19T08:33:41.976Z,35.85
2019-02-19T08:36:12.304Z,38.28
2019-02-19T08:38:43.134Z,37.28
2019-02-19T08:41:13.516Z,39.13
2019-02-19T08:43:43.896Z,47.43
2019-02-19T08:46:14.293Z,38.73
2019-02-19T08:48:44.710Z,31.97
2019-02-19T08:51:15.452Z,48.70
2019-02-19T08:53:45.855Z,35.83
2019-02-19T08:56:16.196Z,34.57
2019-02-19T08:58:46.605Z,26.33
2019-02-19T09:01:16.956Z,30.53
2019-02-19T09:03:47.320Z,36.47
2019-02-19T09:06:17.684Z,36.00
2019-02-19T09:08:48.563Z,32.00
2019-02-19T09:11:18.901Z,31.87
2019-02-19T09:13:49.308Z,26.60
2019-02-19T09:16:19.635Z,37.93
2019-02-19T09:18:51.131Z,35.53
2019-02-19T09:21:21.570Z,39.50
2019-02-19T09:23:51.954Z,39.33
2019-02-19T09:26:22.356Z,42.53
2019-02-19T09:28:52.713Z,49.93
2019-02-19T09:31:23.073Z,33.13
2019-02-19T09:33:53.474Z,46.80
2019-02-19T09:36:23.868Z,28.13
2019-02-19T09:38:55.931Z,35.97
2019-02-19T09:41:26.312Z,34.30
2019-02-19T09:43:56.664Z,37.10
2019-02-19T09:46:27.022Z,36.90
2019-02-19T09:49:19.421Z,30.73
2019-02-19T09:51:49.772Z,31.67
2019-02-19T09:54:20.100Z,34.73
2019-02-19T09:56:50.420Z,29.33
2019-02-19T09:59:20.756Z,33.20
2019-02-19T10:01:51.085Z,35.83
2019-02-19T10:04:21.432Z,41.73
2019-02-19T10:06:52.124Z,28.20
2019-02-19T10:09:23.568Z,29.23
2019-02-19T10:11:53.922Z,29.73
2019-02-19T10:14:24.279Z,37.17
2019-02-19T10:16:54.649Z,28.30
2019-02-19T10:19:26.084Z,29.83
2019-02-19T10:21:56.572Z,39.10
2019-02-19T10:24:26.962Z,34.13
2019-02-19T10:26:57.377Z,28.37
2019-02-19T10:29:28.900Z,30.90
2019-02-19T10:31:59.440Z,35.23
2019-02-19T10:34:29.829Z,33.77
2019-02-19T10:37:00.258Z,29.47
2019-02-19T10:39:31.867Z,31.37
2019-02-19T10:42:02.396Z,24.73
2019-02-19T10:44:32.771Z,33.17
2019-02-19T10:47:03.174Z,33.90
2019-02-19T10:49:33.563Z,35.73
2019-02-19T10:52:03.956Z,30.23
2019-02-19T10:54:34.306Z,30.73
2019-02-19T10:57:04.719Z,29.53
2019-02-19T10:59:35.084Z,34.93
2019-02-19T11:02:05.452Z,32.47
2019-02-19T11:04:35.841Z,25.67
2019-02-19T11:07:06.156Z,29.17
2019-02-19T11:09:37.048Z,23.33
2019-02-19T11:12:07.428Z,24.43
2019-02-19T11:14:37.794Z,31.33
2019-02-19T11:17:08.186Z,28.90
2019-02-19T11:19:38.504Z,33.27
2019-02-19T11:22:08.881Z,26.23
2019-02-19T11:24:40.266Z,27.10
2019-02-19T11:27:11.043Z,28.10
2019-02-19T11:29:41.410Z,23.97
2019-02-19T11:32:11.790Z,29.83
2019-02-19T11:34:42.206Z,24.57
2019-02-19T11:37:12.590Z,24.87
2019-02-19T11:39:43.526Z,26.63
2019-02-19T11:42:13.930Z,22.60
2019-02-19T11:44:44.263Z,23.07
2019-02-19T11:47:14.672Z,26.10
2019-02-19T11:49:45.045Z,19.40
2019-02-19T11:52:15.420Z,26.63
2019-02-19T11:54:57.713Z,23.93
2019-02-19T12:00:34.425Z,26.50
2019-02-19T12:03:05.596Z,22.73
2019-02-19T12:05:35.974Z,18.83
2019-02-19T12:08:06.278Z,25.67
2019-02-19T12:10:37.028Z,26.20
2019-02-19T12:13:07.390Z,24.07
2019-02-19T12:15:37.760Z,36.40
2019-02-19T12:18:08.382Z,19.77
2019-02-19T12:20:38.831Z,17.77
2019-02-19T12:23:09.200Z,18.43
2019-02-19T12:25:40.958Z,19.67
2019-02-19T12:28:11.380Z,18.20
2019-02-19T12:30:41.728Z,24.93
2019-02-19T12:33:12.086Z,23.80
2019-02-19T12:35:42.460Z,17.20
2019-02-19T12:38:12.824Z,18.93
2019-02-19T12:40:43.537Z,21.97
2019-02-19T12:43:13.948Z,18.10
2019-02-19T12:45:44.288Z,15.63
2019-02-19T12:48:14.660Z,20.00
2019-02-19T12:50:45.020Z,19.10
2019-02-19T12:53:15.370Z,26.53
2019-02-19T12:55:45.782Z,22.93
2019-02-19T12:58:16.141Z,19.10
2019-02-19T13:00:46.651Z,17.40
2019-02-19T13:03:17.070Z,22.03
2019-02-19T13:05:47.460Z,28.87
2019-02-19T13:08:17.866Z,18.63
2019-02-19T13:10:49.718Z,19.17
2019-02-19T13:13:20.050Z,22.77
2019-02-19T13:15:50.430Z,18.97
2019-02-19T13:18:21.208Z,28.63
2019-02-19T13:20:51.546Z,17.80
2019-02-19T13:23:22.912Z,24.03
2019-02-19T13:25:53.304Z,30.13
2019-02-19T13:28:23.644Z,19.20
2019-02-19T13:30:54.027Z,20.50
2019-02-19T13:33:24.362Z,26.20
2019-02-19T13:35:54.761Z,21.10
2019-02-19T13:38:25.119Z,16.77
2019-02-19T13:40:56.236Z,22.13
2019-02-19T13:43:26.610Z,22.80
2019-02-19T13:45:56.981Z,18.50
2019-02-19T13:48:27.317Z,21.17
2019-02-19T13:50:57.690Z,15.73
2019-02-19T13:53:34.948Z,20.97
2019-02-19T13:56:05.732Z,17.50
2019-02-19T13:58:36.164Z,38.03
2019-02-19T14:01:06.558Z,26.33
2019-02-19T14:03:36.906Z,17.53
2019-02-19T14:06:07.282Z,22.47
2019-02-19T14:08:37.648Z,26.77
2019-02-19T14:11:08.568Z,23.67
2019-02-19T14:13:41.474Z,17.90
2019-02-19T14:16:21.851Z,19.83
2019-02-19T14:18:56.354Z,17.30
2019-02-19T14:21:44.323Z,22.80
2019-02-19T14:24:42.607Z,16.60
2019-02-19T14:27:40.937Z,20.07
2019-02-19T14:30:34.266Z,17.70
2019-02-19T14:33:24.745Z,19.07
2019-02-19T14:36:17.355Z,19.17
2019-02-19T14:38:58.432Z,31.17
2019-02-19T14:41:49.009Z,20.27
2019-02-19T14:44:38.397Z,19.27
2019-02-19T14:47:30.942Z,22.50
2019-02-19T14:50:32.174Z,19.87
2019-02-19T14:53:27.565Z,24.50
2019-02-19T14:56:32.173Z,21.77
2019-02-19T14:59:19.423Z,28.80
2019-02-19T15:02:07.299Z,19.80
2019-02-19T15:04:55.271Z,17.80
2019-02-19T15:07:34.168Z,28.13
2019-02-19T15:10:33.119Z,17.63
2019-02-19T15:13:22.814Z,18.63
2019-02-19T15:16:24.213Z,21.83
2019-02-19T15:19:06.299Z,41.60
2019-02-19T15:21:55.606Z,16.70
2019-02-19T15:24:43.574Z,20.30
2019-02-19T15:27:41.933Z,18.57
2019-02-19T15:30:34.311Z,20.13
2019-02-19T15:33:30.024Z,19.37
2019-02-19T15:36:28.354Z,19.60
2019-02-19T15:39:33.093Z,21.50
2019-02-19T15:42:25.492Z,20.43
2019-02-19T15:45:14.779Z,25.13
2019-02-19T15:48:04.144Z,25.47
2019-02-19T15:50:52.340Z,31.73
2019-02-19T15:53:39.821Z,25.50
2019-02-19T15:56:34.114Z,36.57
2019-02-19T15:59:41.586Z,29.13
2019-02-19T16:02:34.059Z,24.43
2019-02-19T16:05:35.636Z,19.33
2019-02-19T16:08:16.633Z,20.30
2019-02-19T16:10:57.516Z,30.63
2019-02-19T16:13:38.574Z,24.67
2019-02-19T16:16:26.802Z,26.33
2019-02-19T16:19:14.051Z,20.53
2019-02-19T16:22:00.462Z,31.53
2019-02-19T16:24:48.430Z,20.70
2019-02-19T16:27:40.779Z,20.77
2019-02-19T16:30:33.090Z,26.23
2019-02-19T16:33:34.775Z,29.20
2019-02-19T16:36:11.527Z,33.83
2019-02-19T16:38:59.189Z,26.83
2019-02-19T16:41:51.374Z,32.90
2019-02-19T16:48:01.977Z,30.83
2019-02-19T16:50:46.744Z,32.73
2019-02-19T16:53:25.025Z,22.93
2019-02-19T16:56:08.416Z,26.83
2019-02-19T16:59:05.480Z,31.37
2019-02-19T17:02:01.102Z,23.67
2019-02-19T17:04:53.136Z,22.67
2019-02-19T17:07:30.382Z,27.80
2019-02-19T17:10:24.076Z,24.30
2019-02-19T17:13:05.953Z,29.00
2019-02-19T17:16:13.511Z,23.33
2019-02-19T17:19:03.255Z,29.77
2019-02-19T17:21:45.919Z,27.10
2019-02-19T17:24:29.888Z,24.03
2019-02-19T17:27:38.452Z,25.23
2019-02-19T17:30:31.664Z,29.30
2019-02-19T17:33:24.036Z,24.97
2019-02-19T17:36:19.395Z,27.63
2019-02-19T17:39:09.236Z,31.20
2019-02-19T17:41:44.773Z,32.97
2019-02-19T17:44:20.076Z,28.33
2019-02-19T17:47:14.278Z,30.07
2019-02-19T17:50:12.863Z,39.43
2019-02-19T17:53:08.093Z,35.10
2019-02-19T17:56:06.780Z,36.93
2019-02-19T17:58:57.671Z,35.63
2019-02-19T18:01:39.061Z,40.08
2019-02-19T18:04:28.390Z,32.23
2019-02-19T18:07:23.485Z,30.60
2019-02-19T18:10:18.731Z,35.13
2019-02-19T18:13:00.282Z,37.03
2019-02-19T18:15:57.526Z,39.97
2019-02-19T18:18:33.867Z,28.83
2019-02-19T18:21:05.278Z,27.63
2019-02-19T18:23:35.631Z,38.83
2019-02-19T18:26:06.028Z,28.70
2019-02-19T18:28:36.412Z,34.23
2019-02-19T18:31:06.833Z,33.37
2019-02-19T18:33:37.238Z,29.18
2019-02-19T18:36:07.624Z,26.30
2019-02-19T18:38:37.991Z,33.30
2019-02-19T18:41:08.500Z,31.27
2019-02-19T18:43:38.836Z,27.73
2019-02-19T18:46:09.189Z,28.60
2019-02-19T18:48:39.679Z,33.13
2019-02-19T18:51:10.121Z,33.92
2019-02-19T18:53:40.553Z,32.60
2019-02-19T18:56:10.944Z,35.55
2019-02-19T18:58:41.242Z,34.33
2019-02-19T19:01:12.178Z,36.20
2019-02-19T19:03:43.656Z,28.83
2019-02-19T19:06:13.984Z,33.73
2019-02-19T19:08:44.338Z,34.20
2019-02-19T19:11:14.681Z,37.87
2019-02-19T19:13:45.052Z,29.93
2019-02-19T19:16:15.396Z,31.93
2019-02-19T19:18:45.772Z,39.95
2019-02-19T19:21:16.088Z,30.90
2019-02-19T19:23:46.876Z,30.00
2019-02-19T19:26:18.225Z,25.73
2019-02-19T19:28:48.629Z,28.03
2019-02-19T19:31:19.025Z,24.50
2019-02-19T19:33:49.443Z,19.17
2019-02-19T19:36:19.815Z,20.20
2019-02-19T19:38:50.605Z,21.00
2019-02-19T19:41:20.964Z,18.47
2019-02-19T19:43:51.320Z,21.27
2019-02-19T19:46:21.692Z,21.27
2019-02-19T19:48:52.159Z,19.73
2019-02-19T19:51:23.293Z,18.27
2019-02-19T19:53:53.633Z,20.92
2019-02-19T19:56:24.073Z,20.80
2019-02-19T19:58:54.462Z,20.27
2019-02-19T20:01:25.303Z,19.53
2019-02-19T20:03:55.908Z,26.62
2019-02-19T20:06:26.254Z,22.60
2019-02-19T20:08:56.591Z,34.55
2019-02-19T20:11:26.953Z,38.08
2019-02-19T20:13:57.314Z,30.12
2019-02-19T20:16:27.733Z,32.58
2019-02-19T20:18:58.109Z,37.48
2019-02-19T20:21:29.485Z,38.67
2019-02-19T20:24:00.155Z,35.70
2019-02-19T20:26:30.642Z,37.40
2019-02-19T20:29:02.764Z,35.88
2019-02-19T20:31:33.204Z,26.27
2019-02-19T20:34:06.903Z,34.48
2019-02-19T20:36:37.667Z,35.17
2019-02-19T20:39:08.115Z,29.40
2019-02-19T20:41:40.143Z,29.92
2019-02-19T20:44:10.917Z,29.57
2019-02-19T20:46:41.315Z,22.40
2019-02-19T20:49:11.726Z,28.57
2019-02-19T20:51:43.489Z,33.80
2019-02-19T20:54:13.938Z,33.28
2019-02-19T20:56:44.417Z,39.30
2019-02-19T20:59:14.775Z,25.02
2019-02-19T21:01:45.169Z,29.70
2019-02-19T21:04:15.515Z,20.50
2019-02-19T21:06:46.430Z,20.92
2019-02-19T21:09:17.131Z,27.32
2019-02-19T21:11:47.507Z,26.80
2019-02-19T21:14:17.875Z,32.63
2019-02-19T21:16:48.252Z,28.25
2019-02-19T21:19:18.598Z,24.50
2019-02-19T21:21:49.708Z,24.15
2019-02-19T21:24:20.055Z,26.90
2019-02-19T21:26:50.426Z,30.32
2019-02-19T21:29:22.317Z,41.68
2019-02-19T21:31:52.772Z,24.85
2019-02-19T21:34:23.218Z,27.05
2019-02-19T21:36:53.665Z,24.40
2019-02-19T21:39:24.088Z,20.30
2019-02-19T21:41:54.905Z,29.63
2019-02-19T21:44:25.264Z,20.27
2019-02-19T21:46:56.333Z,20.77
2019-02-19T21:49:26.756Z,25.00
2019-02-19T21:51:58.545Z,40.05
2019-02-19T21:54:28.995Z,21.07
2019-02-19T21:56:59.336Z,21.25
2019-02-19T21:59:29.946Z,20.43
2019-02-19T22:02:00.387Z,22.60
2019-02-19T22:04:32.049Z,17.65
2019-02-19T22:07:02.440Z,23.98
2019-02-19T22:09:32.878Z,16.15
2019-02-19T22:12:03.236Z,18.77
2019-02-19T22:14:33.637Z,18.62
2019-02-19T22:17:04.019Z,19.00
2019-02-19T22:19:34.372Z,21.65
2019-02-19T22:22:12.577Z,17.40
2019-02-19T22:24:43.004Z,20.52
2019-02-19T22:27:13.412Z,22.00
2019-02-19T22:29:43.781Z,20.05
2019-02-19T22:32:16.310Z,20.68
2019-02-19T22:34:47.622Z,26.12
2019-02-19T22:37:18.446Z,22.05
2019-02-19T22:39:48.784Z,19.30
2019-02-19T22:42:19.154Z,20.25
2019-02-19T22:44:49.469Z,18.98
2019-02-19T22:47:19.836Z,19.25
2019-02-19T22:49:50.179Z,17.80
2019-02-19T22:52:21.440Z,29.02
2019-02-19T22:55:04.320Z,18.67
2019-02-19T22:57:34.722Z,20.77
2019-02-19T23:00:08.345Z,28.80
2019-02-19T23:02:40.379Z,27.15
2019-02-19T23:05:10.829Z,20.68
2019-02-19T23:07:41.234Z,44.00
2019-02-19T23:10:11.612Z,27.58
2019-02-19T23:12:42.136Z,24.12
2019-02-19T23:15:12.540Z,35.88
2019-02-19T23:17:43.026Z,29.63
2019-02-19T23:20:13.395Z,25.35
2019-02-19T23:22:44.790Z,23.90
2019-02-19T23:25:15.225Z,34.58
2019-02-19T23:27:45.714Z,34.20
2019-02-19T23:30:17.809Z,27.25
2019-02-19T23:32:48.313Z,23.20
2019-02-19T23:35:26.453Z,27.22
2019-02-19T23:37:57.048Z,34.60
2019-02-19T23:40:27.447Z,26.65
2019-02-19T23:42:59.668Z,27.22
2019-02-19T23:45:30.090Z,36.73
2019-02-19T23:48:00.718Z,28.73
2019-02-19T23:50:31.193Z,31.45
2019-02-19T23:53:05.806Z,22.20
2019-02-19T23:55:36.232Z,24.45
2019-02-19T23:58:06.545Z,22.93
